sensor_id;sensor_type;location;lat;lon;timestamp;pressure;altitude;pressure_sealevel;temperature;humidity
58072;BME280;60383;46.626;18.866;2023-04-21T00:00:16;100318.47;;;12.22;60.97
58072;BME280;60383;46.626;18.866;2023-04-21T00:02:42;100322.78;;;12.17;60.67
58072;BME280;60383;46.626;18.866;2023-04-21T00:05:08;100315.75;;;12.14;61.00
58072;BME280;60383;46.626;18.866;2023-04-21T00:07:35;100317.78;;;12.04;61.53
58072;BME280;60383;46.626;18.866;2023-04-21T00:10:06;100328.91;;;11.94;62.32
58072;BME280;60383;46.626;18.866;2023-04-21T00:12:32;100321.53;;;11.86;62.02
58072;BME280;60383;46.626;18.866;2023-04-21T00:14:57;100314.97;;;11.71;63.01
58072;BME280;60383;46.626;18.866;2023-04-21T00:17:23;100318.56;;;11.79;62.71
58072;BME280;60383;46.626;18.866;2023-04-21T00:19:48;100310.69;;;11.76;62.75
58072;BME280;60383;46.626;18.866;2023-04-21T00:22:14;100310.19;;;11.73;62.32
58072;BME280;60383;46.626;18.866;2023-04-21T00:24:39;100306.78;;;11.87;61.52
58072;BME280;60383;46.626;18.866;2023-04-21T00:27:05;100305.19;;;11.85;61.13
58072;BME280;60383;46.626;18.866;2023-04-21T00:29:30;100300.91;;;11.82;60.81
58072;BME280;60383;46.626;18.866;2023-04-21T00:31:56;100318.63;;;11.96;59.73
58072;BME280;60383;46.626;18.866;2023-04-21T00:34:21;100313.69;;;12.16;59.06
58072;BME280;60383;46.626;18.866;2023-04-21T00:36:47;100309.22;;;12.15;58.58
58072;BME280;60383;46.626;18.866;2023-04-21T00:39:12;100303.91;;;12.30;57.66
58072;BME280;60383;46.626;18.866;2023-04-21T00:41:38;100308.91;;;12.26;57.95
58072;BME280;60383;46.626;18.866;2023-04-21T00:44:06;100308.03;;;12.09;58.13
58072;BME280;60383;46.626;18.866;2023-04-21T00:46:33;100306.31;;;12.08;58.16
58072;BME280;60383;46.626;18.866;2023-04-21T00:48:59;100303.91;;;12.13;58.17
58072;BME280;60383;46.626;18.866;2023-04-21T00:51:27;100304.41;;;12.17;57.91
58072;BME280;60383;46.626;18.866;2023-04-21T00:53:54;100310.38;;;11.96;58.68
58072;BME280;60383;46.626;18.866;2023-04-21T00:56:20;100305.44;;;12.00;58.28
58072;BME280;60383;46.626;18.866;2023-04-21T00:58:47;100298.56;;;12.04;58.01
58072;BME280;60383;46.626;18.866;2023-04-21T01:01:13;100295.66;;;12.22;57.04
58072;BME280;60383;46.626;18.866;2023-04-21T01:03:40;100309.06;;;12.17;57.28
58072;BME280;60383;46.626;18.866;2023-04-21T01:06:06;100305.97;;;12.20;57.38
58072;BME280;60383;46.626;18.866;2023-04-21T01:08:32;100296.69;;;12.12;57.32
58072;BME280;60383;46.626;18.866;2023-04-21T01:10:57;100303.16;;;11.95;57.40
58072;BME280;60383;46.626;18.866;2023-04-21T01:13:23;100291.50;;;11.93;57.26
58072;BME280;60383;46.626;18.866;2023-04-21T01:15:48;100300.28;;;12.05;56.27
58072;BME280;60383;46.626;18.866;2023-04-21T01:18:14;100294.13;;;12.19;56.00
58072;BME280;60383;46.626;18.866;2023-04-21T01:20:41;100299.53;;;11.78;57.45
58072;BME280;60383;46.626;18.866;2023-04-21T01:23:09;100298.00;;;11.75;58.44
58072;BME280;60383;46.626;18.866;2023-04-21T01:25:34;100292.47;;;11.59;59.33
58072;BME280;60383;46.626;18.866;2023-04-21T01:28:00;100288.22;;;11.81;58.49
58072;BME280;60383;46.626;18.866;2023-04-21T01:30:26;100294.38;;;11.66;58.79
58072;BME280;60383;46.626;18.866;2023-04-21T01:32:52;100294.91;;;11.87;58.13
58072;BME280;60383;46.626;18.866;2023-04-21T01:35:17;100291.31;;;11.78;58.39
58072;BME280;60383;46.626;18.866;2023-04-21T01:37:43;100290.78;;;11.66;59.27
58072;BME280;60383;46.626;18.866;2023-04-21T01:40:09;100291.38;;;11.43;59.77
58072;BME280;60383;46.626;18.866;2023-04-21T01:42:40;100289.34;;;11.45;60.21
58072;BME280;60383;46.626;18.866;2023-04-21T01:45:06;100298.88;;;11.25;60.69
58072;BME280;60383;46.626;18.866;2023-04-21T01:47:31;100293.34;;;11.08;61.55
58072;BME280;60383;46.626;18.866;2023-04-21T01:49:57;100302.19;;;11.02;61.50
58072;BME280;60383;46.626;18.866;2023-04-21T01:52:22;100297.75;;;11.09;61.68
58072;BME280;60383;46.626;18.866;2023-04-21T01:54:48;100299.16;;;11.13;61.00
58072;BME280;60383;46.626;18.866;2023-04-21T01:57:15;100300.22;;;11.21;61.09
58072;BME280;60383;46.626;18.866;2023-04-21T01:59:40;100302.22;;;11.10;61.40
58072;BME280;60383;46.626;18.866;2023-04-21T02:02:06;100302.63;;;11.15;61.45
58072;BME280;60383;46.626;18.866;2023-04-21T02:04:31;100308.41;;;11.12;61.46
58072;BME280;60383;46.626;18.866;2023-04-21T02:06:57;100305.25;;;10.99;61.85
58072;BME280;60383;46.626;18.866;2023-04-21T02:09:22;100308.66;;;10.93;62.31
58072;BME280;60383;46.626;18.866;2023-04-21T02:11:48;100308.97;;;10.90;62.05
58072;BME280;60383;46.626;18.866;2023-04-21T02:14:13;100303.59;;;10.80;62.35
58072;BME280;60383;46.626;18.866;2023-04-21T02:16:39;100304.50;;;10.89;62.50
58072;BME280;60383;46.626;18.866;2023-04-21T02:19:04;100305.44;;;10.97;61.84
58072;BME280;60383;46.626;18.866;2023-04-21T02:21:30;100303.38;;;10.99;61.76
58072;BME280;60383;46.626;18.866;2023-04-21T02:23:56;100305.56;;;10.96;61.94
58072;BME280;60383;46.626;18.866;2023-04-21T02:26:21;100302.81;;;10.88;62.52
58072;BME280;60383;46.626;18.866;2023-04-21T02:28:47;100307.59;;;10.85;62.67
58072;BME280;60383;46.626;18.866;2023-04-21T02:31:15;100306.72;;;10.85;62.78
58072;BME280;60383;46.626;18.866;2023-04-21T02:33:40;100309.69;;;10.65;63.29
58072;BME280;60383;46.626;18.866;2023-04-21T02:36:06;100308.59;;;10.58;63.62
58072;BME280;60383;46.626;18.866;2023-04-21T02:38:31;100304.66;;;10.61;63.61
58072;BME280;60383;46.626;18.866;2023-04-21T02:40:57;100308.69;;;10.48;64.01
58072;BME280;60383;46.626;18.866;2023-04-21T02:43:23;100309.41;;;10.50;64.39
58072;BME280;60383;46.626;18.866;2023-04-21T02:45:48;100303.88;;;10.42;64.54
58072;BME280;60383;46.626;18.866;2023-04-21T02:48:14;100305.47;;;10.53;64.41
58072;BME280;60383;46.626;18.866;2023-04-21T02:50:41;100305.19;;;10.56;64.29
58072;BME280;60383;46.626;18.866;2023-04-21T02:53:07;100301.44;;;10.57;64.27
58072;BME280;60383;46.626;18.866;2023-04-21T02:55:32;100307.28;;;10.62;63.81
58072;BME280;60383;46.626;18.866;2023-04-21T02:57:58;100310.84;;;10.63;63.90
58072;BME280;60383;46.626;18.866;2023-04-21T03:00:23;100304.16;;;10.57;63.76
58072;BME280;60383;46.626;18.866;2023-04-21T03:02:49;100305.72;;;10.60;63.91
58072;BME280;60383;46.626;18.866;2023-04-21T03:05:14;100314.47;;;10.63;63.60
58072;BME280;60383;46.626;18.866;2023-04-21T03:07:40;100310.66;;;10.56;63.77
58072;BME280;60383;46.626;18.866;2023-04-21T03:10:06;100314.09;;;10.40;64.48
58072;BME280;60383;46.626;18.866;2023-04-21T03:12:31;100301.91;;;10.52;63.96
58072;BME280;60383;46.626;18.866;2023-04-21T03:14:57;100303.03;;;10.42;64.28
58072;BME280;60383;46.626;18.866;2023-04-21T03:17:23;100309.03;;;10.45;64.50
58072;BME280;60383;46.626;18.866;2023-04-21T03:19:48;100313.63;;;10.45;64.25
58072;BME280;60383;46.626;18.866;2023-04-21T03:22:14;100309.25;;;10.34;64.88
58072;BME280;60383;46.626;18.866;2023-04-21T03:24:39;100312.16;;;10.50;64.46
58072;BME280;60383;46.626;18.866;2023-04-21T03:27:05;100310.75;;;10.46;64.55
58072;BME280;60383;46.626;18.866;2023-04-21T03:29:30;100320.28;;;10.42;64.63
58072;BME280;60383;46.626;18.866;2023-04-21T03:31:56;100325.28;;;10.29;64.77
58072;BME280;60383;46.626;18.866;2023-04-21T03:34:21;100321.47;;;10.21;65.04
58072;BME280;60383;46.626;18.866;2023-04-21T03:36:47;100319.53;;;10.14;65.77
58072;BME280;60383;46.626;18.866;2023-04-21T03:39:12;100328.38;;;10.07;65.88
58072;BME280;60383;46.626;18.866;2023-04-21T03:41:38;100331.00;;;9.99;66.37
58072;BME280;60383;46.626;18.866;2023-04-21T03:44:03;100334.47;;;10.01;66.46
58072;BME280;60383;46.626;18.866;2023-04-21T03:46:29;100326.38;;;10.00;66.37
58072;BME280;60383;46.626;18.866;2023-04-21T03:48:54;100331.47;;;9.95;66.66
58072;BME280;60383;46.626;18.866;2023-04-21T03:51:20;100330.84;;;10.01;66.71
58072;BME280;60383;46.626;18.866;2023-04-21T03:53:45;100326.63;;;10.06;66.44
58072;BME280;60383;46.626;18.866;2023-04-21T03:56:11;100325.28;;;10.11;66.25
58072;BME280;60383;46.626;18.866;2023-04-21T03:58:36;100333.03;;;10.15;66.07
58072;BME280;60383;46.626;18.866;2023-04-21T04:01:04;100337.13;;;9.93;66.72
58072;BME280;60383;46.626;18.866;2023-04-21T04:03:30;100342.88;;;9.90;67.08
58072;BME280;60383;46.626;18.866;2023-04-21T04:05:56;100337.59;;;10.06;66.87
58072;BME280;60383;46.626;18.866;2023-04-21T04:08:21;100337.81;;;10.13;66.30
58072;BME280;60383;46.626;18.866;2023-04-21T04:10:47;100338.50;;;10.33;65.83
58072;BME280;60383;46.626;18.866;2023-04-21T04:13:12;100346.00;;;10.31;65.27
58072;BME280;60383;46.626;18.866;2023-04-21T04:15:38;100342.63;;;10.55;63.93
58072;BME280;60383;46.626;18.866;2023-04-21T04:18:03;100347.19;;;10.91;62.24
58072;BME280;60383;46.626;18.866;2023-04-21T04:20:29;100351.50;;;11.02;62.33
58072;BME280;60383;46.626;18.866;2023-04-21T04:22:54;100356.06;;;11.19;61.82
58072;BME280;60383;46.626;18.866;2023-04-21T04:25:20;100358.44;;;11.14;61.29
58072;BME280;60383;46.626;18.866;2023-04-21T04:27:45;100355.19;;;11.11;61.30
58072;BME280;60383;46.626;18.866;2023-04-21T04:30:13;100358.72;;;11.03;61.31
58072;BME280;60383;46.626;18.866;2023-04-21T04:32:39;100363.00;;;11.06;61.51
58072;BME280;60383;46.626;18.866;2023-04-21T04:35:06;100368.06;;;11.18;61.21
58072;BME280;60383;46.626;18.866;2023-04-21T04:37:32;100364.66;;;11.25;60.43
58072;BME280;60383;46.626;18.866;2023-04-21T04:39:59;100366.78;;;11.39;60.77
58072;BME280;60383;46.626;18.866;2023-04-21T04:42:25;100363.56;;;11.44;60.64
58072;BME280;60383;46.626;18.866;2023-04-21T04:44:53;100374.19;;;11.47;60.11
58072;BME280;60383;46.626;18.866;2023-04-21T04:47:20;100368.38;;;11.50;61.01
58072;BME280;60383;46.626;18.866;2023-04-21T04:49:45;100371.03;;;11.68;60.70
58072;BME280;60383;46.626;18.866;2023-04-21T04:52:11;100380.47;;;11.74;59.69
58072;BME280;60383;46.626;18.866;2023-04-21T04:54:36;100373.03;;;12.09;58.73
58072;BME280;60383;46.626;18.866;2023-04-21T04:57:02;100383.22;;;12.25;58.43
58072;BME280;60383;46.626;18.866;2023-04-21T04:59:27;100381.66;;;12.30;57.94
58072;BME280;60383;46.626;18.866;2023-04-21T05:01:54;100374.31;;;11.88;58.40
58072;BME280;60383;46.626;18.866;2023-04-21T05:04:20;100377.50;;;12.10;57.30
58072;BME280;60383;46.626;18.866;2023-04-21T05:06:45;100377.72;;;12.50;55.60
58072;BME280;60383;46.626;18.866;2023-04-21T05:09:11;100384.22;;;12.40;55.87
58072;BME280;60383;46.626;18.866;2023-04-21T05:11:37;100378.06;;;12.55;55.05
58072;BME280;60383;46.626;18.866;2023-04-21T05:14:02;100382.72;;;12.54;55.04
58072;BME280;60383;46.626;18.866;2023-04-21T05:16:28;100380.81;;;12.63;54.85
58072;BME280;60383;46.626;18.866;2023-04-21T05:18:53;100381.47;;;12.73;54.78
58072;BME280;60383;46.626;18.866;2023-04-21T05:21:23;100384.03;;;12.91;54.45
58072;BME280;60383;46.626;18.866;2023-04-21T05:23:49;100395.03;;;13.00;54.31
58072;BME280;60383;46.626;18.866;2023-04-21T05:26:15;100388.63;;;13.16;53.30
58072;BME280;60383;46.626;18.866;2023-04-21T05:28:40;100391.06;;;13.10;53.48
58072;BME280;60383;46.626;18.866;2023-04-21T05:31:05;100386.59;;;13.09;53.35
58072;BME280;60383;46.626;18.866;2023-04-21T05:33:31;100389.00;;;13.21;52.71
58072;BME280;60383;46.626;18.866;2023-04-21T05:35:56;100387.91;;;13.30;52.24
58072;BME280;60383;46.626;18.866;2023-04-21T05:38:22;100402.69;;;13.29;52.81
58072;BME280;60383;46.626;18.866;2023-04-21T05:40:54;100396.53;;;13.27;52.74
58072;BME280;60383;46.626;18.866;2023-04-21T05:43:20;100408.06;;;13.22;53.40
58072;BME280;60383;46.626;18.866;2023-04-21T05:45:46;100391.19;;;13.42;52.84
58072;BME280;60383;46.626;18.866;2023-04-21T05:48:12;100392.88;;;13.51;51.84
58072;BME280;60383;46.626;18.866;2023-04-21T05:50:37;100394.00;;;13.73;51.72
58072;BME280;60383;46.626;18.866;2023-04-21T05:53:03;100394.28;;;13.79;51.31
58072;BME280;60383;46.626;18.866;2023-04-21T05:55:28;100399.53;;;13.65;51.24
58072;BME280;60383;46.626;18.866;2023-04-21T05:57:54;100400.72;;;13.71;51.63
58072;BME280;60383;46.626;18.866;2023-04-21T06:00:19;100396.75;;;13.73;49.69
58072;BME280;60383;46.626;18.866;2023-04-21T06:02:45;100394.00;;;13.73;50.47
58072;BME280;60383;46.626;18.866;2023-04-21T06:05:10;100395.69;;;13.83;51.36
58072;BME280;60383;46.626;18.866;2023-04-21T06:07:36;100404.44;;;13.86;52.13
58072;BME280;60383;46.626;18.866;2023-04-21T06:10:02;100403.22;;;13.89;50.69
58072;BME280;60383;46.626;18.866;2023-04-21T06:12:28;100402.84;;;13.92;50.76
58072;BME280;60383;46.626;18.866;2023-04-21T06:14:53;100399.47;;;14.13;50.25
58072;BME280;60383;46.626;18.866;2023-04-21T06:17:22;100401.00;;;14.16;50.54
58072;BME280;60383;46.626;18.866;2023-04-21T06:19:48;100396.63;;;14.21;50.18
58072;BME280;60383;46.626;18.866;2023-04-21T06:22:21;100401.59;;;14.26;49.55
58072;BME280;60383;46.626;18.866;2023-04-21T06:24:47;100405.19;;;14.03;49.42
58072;BME280;60383;46.626;18.866;2023-04-21T06:27:13;100400.97;;;13.93;51.38
58072;BME280;60383;46.626;18.866;2023-04-21T06:29:38;100406.03;;;14.04;50.38
58072;BME280;60383;46.626;18.866;2023-04-21T06:32:04;100399.84;;;14.02;51.23
58072;BME280;60383;46.626;18.866;2023-04-21T06:34:30;100404.78;;;14.15;51.88
58072;BME280;60383;46.626;18.866;2023-04-21T06:36:55;100402.94;;;14.07;51.41
58072;BME280;60383;46.626;18.866;2023-04-21T06:39:21;100400.16;;;14.62;50.35
58072;BME280;60383;46.626;18.866;2023-04-21T06:41:46;100404.28;;;14.66;50.91
58072;BME280;60383;46.626;18.866;2023-04-21T06:44:12;100398.94;;;14.88;51.37
58072;BME280;60383;46.626;18.866;2023-04-21T06:46:39;100395.75;;;14.76;49.60
58072;BME280;60383;46.626;18.866;2023-04-21T06:49:08;100408.03;;;14.65;49.48
58072;BME280;60383;46.626;18.866;2023-04-21T06:51:34;100404.75;;;14.69;50.51
58072;BME280;60383;46.626;18.866;2023-04-21T06:53:59;100402.84;;;14.47;51.10
58072;BME280;60383;46.626;18.866;2023-04-21T06:56:29;100399.06;;;14.71;49.29
58072;BME280;60383;46.626;18.866;2023-04-21T06:58:55;100405.00;;;14.83;48.70
58072;BME280;60383;46.626;18.866;2023-04-21T07:01:20;100392.88;;;14.69;50.02
58072;BME280;60383;46.626;18.866;2023-04-21T07:03:48;100397.00;;;14.88;50.03
58072;BME280;60383;46.626;18.866;2023-04-21T07:06:14;100385.78;;;14.90;50.47
58072;BME280;60383;46.626;18.866;2023-04-21T07:08:39;100392.19;;;14.90;50.46
58072;BME280;60383;46.626;18.866;2023-04-21T07:11:05;100384.19;;;15.10;49.15
58072;BME280;60383;46.626;18.866;2023-04-21T07:13:31;100385.63;;;15.06;49.13
58072;BME280;60383;46.626;18.866;2023-04-21T07:15:57;100383.47;;;15.16;50.10
58072;BME280;60383;46.626;18.866;2023-04-21T07:18:22;100376.34;;;15.37;49.09
58072;BME280;60383;46.626;18.866;2023-04-21T07:20:48;100384.63;;;15.37;48.56
58072;BME280;60383;46.626;18.866;2023-04-21T07:23:13;100386.25;;;15.61;47.67
58072;BME280;60383;46.626;18.866;2023-04-21T07:25:39;100393.28;;;15.64;47.28
58072;BME280;60383;46.626;18.866;2023-04-21T07:28:04;100392.91;;;15.52;47.66
58072;BME280;60383;46.626;18.866;2023-04-21T07:30:30;100378.59;;;15.63;47.98
58072;BME280;60383;46.626;18.866;2023-04-21T07:32:56;100382.34;;;15.56;48.37
58072;BME280;60383;46.626;18.866;2023-04-21T07:35:22;100380.22;;;15.73;48.04
58072;BME280;60383;46.626;18.866;2023-04-21T07:37:47;100389.47;;;15.65;48.56
58072;BME280;60383;46.626;18.866;2023-04-21T07:40:13;100381.84;;;15.52;48.61
58072;BME280;60383;46.626;18.866;2023-04-21T07:42:39;100375.28;;;15.68;47.49
58072;BME280;60383;46.626;18.866;2023-04-21T07:45:04;100383.72;;;15.81;46.77
58072;BME280;60383;46.626;18.866;2023-04-21T07:47:30;100383.56;;;15.83;46.41
58072;BME280;60383;46.626;18.866;2023-04-21T07:49:56;100378.41;;;15.80;46.67
58072;BME280;60383;46.626;18.866;2023-04-21T07:52:22;100396.16;;;15.86;47.22
58072;BME280;60383;46.626;18.866;2023-04-21T07:54:48;100397.19;;;15.85;47.52
58072;BME280;60383;46.626;18.866;2023-04-21T07:57:13;100397.47;;;15.75;46.22
58072;BME280;60383;46.626;18.866;2023-04-21T07:59:39;100388.41;;;15.96;46.19
58072;BME280;60383;46.626;18.866;2023-04-21T08:02:05;100390.47;;;16.09;45.49
58072;BME280;60383;46.626;18.866;2023-04-21T08:04:31;100400.19;;;16.05;45.66
58072;BME280;60383;46.626;18.866;2023-04-21T08:06:56;100394.22;;;16.23;46.42
58072;BME280;60383;46.626;18.866;2023-04-21T08:09:22;100395.09;;;16.45;45.77
58072;BME280;60383;46.626;18.866;2023-04-21T08:11:47;100395.03;;;16.60;44.20
58072;BME280;60383;46.626;18.866;2023-04-21T08:14:13;100393.91;;;16.76;43.54
58072;BME280;60383;46.626;18.866;2023-04-21T08:16:38;100392.53;;;16.65;43.36
58072;BME280;60383;46.626;18.866;2023-04-21T08:19:07;100404.25;;;16.67;44.31
58072;BME280;60383;46.626;18.866;2023-04-21T08:21:34;100389.75;;;16.65;43.87
58072;BME280;60383;46.626;18.866;2023-04-21T08:24:00;100388.88;;;16.86;45.11
58072;BME280;60383;46.626;18.866;2023-04-21T08:26:25;100394.00;;;17.11;42.86
58072;BME280;60383;46.626;18.866;2023-04-21T08:28:51;100383.16;;;17.45;42.74
58072;BME280;60383;46.626;18.866;2023-04-21T08:31:20;100393.47;;;17.64;43.36
58072;BME280;60383;46.626;18.866;2023-04-21T08:33:46;100394.81;;;17.33;43.30
58072;BME280;60383;46.626;18.866;2023-04-21T08:36:11;100391.97;;;17.62;41.96
58072;BME280;60383;46.626;18.866;2023-04-21T08:38:37;100389.78;;;17.50;41.38
58072;BME280;60383;46.626;18.866;2023-04-21T08:41:03;100384.19;;;17.44;41.85
58072;BME280;60383;46.626;18.866;2023-04-21T08:43:29;100384.25;;;17.50;41.24
58072;BME280;60383;46.626;18.866;2023-04-21T08:45:55;100393.22;;;17.52;42.21
58072;BME280;60383;46.626;18.866;2023-04-21T08:48:21;100388.66;;;17.80;41.52
58072;BME280;60383;46.626;18.866;2023-04-21T08:50:51;100398.16;;;18.06;40.46
58072;BME280;60383;46.626;18.866;2023-04-21T08:53:18;100392.25;;;18.15;40.31
58072;BME280;60383;46.626;18.866;2023-04-21T08:55:44;100394.81;;;18.17;39.32
58072;BME280;60383;46.626;18.866;2023-04-21T08:58:10;100385.00;;;18.21;38.96
58072;BME280;60383;46.626;18.866;2023-04-21T09:00:37;100390.09;;;18.11;38.76
58072;BME280;60383;46.626;18.866;2023-04-21T09:03:05;100375.19;;;18.12;39.70
58072;BME280;60383;46.626;18.866;2023-04-21T09:05:33;100378.66;;;18.41;40.67
58072;BME280;60383;46.626;18.866;2023-04-21T09:08:12;100379.50;;;18.48;40.98
58072;BME280;60383;46.626;18.866;2023-04-21T09:10:45;100376.34;;;18.78;39.07
58072;BME280;60383;46.626;18.866;2023-04-21T09:13:12;100362.88;;;18.75;39.57
58072;BME280;60383;46.626;18.866;2023-04-21T09:15:49;100367.38;;;18.89;38.42
58072;BME280;60383;46.626;18.866;2023-04-21T09:18:20;100368.88;;;18.58;38.47
58072;BME280;60383;46.626;18.866;2023-04-21T09:20:48;100358.84;;;18.64;39.17
58072;BME280;60383;46.626;18.866;2023-04-21T09:23:13;100364.41;;;18.84;40.00
58072;BME280;60383;46.626;18.866;2023-04-21T09:25:41;100357.59;;;18.80;38.55
58072;BME280;60383;46.626;18.866;2023-04-21T09:28:08;100362.28;;;19.06;37.44
58072;BME280;60383;46.626;18.866;2023-04-21T09:30:35;100359.47;;;18.66;38.98
58072;BME280;60383;46.626;18.866;2023-04-21T09:33:01;100354.19;;;18.98;37.62
58072;BME280;60383;46.626;18.866;2023-04-21T09:35:28;100354.19;;;18.91;38.27
58072;BME280;60383;46.626;18.866;2023-04-21T09:37:53;100351.81;;;19.08;38.08
58072;BME280;60383;46.626;18.866;2023-04-21T09:40:19;100347.56;;;18.92;37.95
58072;BME280;60383;46.626;18.866;2023-04-21T09:42:44;100349.28;;;19.07;38.22
58072;BME280;60383;46.626;18.866;2023-04-21T09:45:10;100345.19;;;19.23;37.30
58072;BME280;60383;46.626;18.866;2023-04-21T09:47:39;100345.63;;;19.13;38.22
58072;BME280;60383;46.626;18.866;2023-04-21T09:50:06;100343.44;;;19.42;37.53
58072;BME280;60383;46.626;18.866;2023-04-21T09:52:32;100343.13;;;19.63;37.97
58072;BME280;60383;46.626;18.866;2023-04-21T09:55:01;100330.53;;;19.61;37.01
58072;BME280;60383;46.626;18.866;2023-04-21T09:57:30;100336.31;;;19.66;36.99
58072;BME280;60383;46.626;18.866;2023-04-21T10:00:03;100340.28;;;19.90;36.81
58072;BME280;60383;46.626;18.866;2023-04-21T10:02:30;100336.22;;;20.25;36.09
58072;BME280;60383;46.626;18.866;2023-04-21T10:04:57;100330.81;;;19.98;36.37
58072;BME280;60383;46.626;18.866;2023-04-21T10:07:22;100331.16;;;20.15;35.20
58072;BME280;60383;46.626;18.866;2023-04-21T10:09:53;100329.03;;;20.10;34.60
58072;BME280;60383;46.626;18.866;2023-04-21T10:12:21;100336.97;;;20.07;35.05
58072;BME280;60383;46.626;18.866;2023-04-21T10:14:51;100334.84;;;20.09;34.91
58072;BME280;60383;46.626;18.866;2023-04-21T10:17:17;100341.31;;;19.96;34.84
58072;BME280;60383;46.626;18.866;2023-04-21T10:19:54;100338.19;;;19.72;34.96
58072;BME280;60383;46.626;18.866;2023-04-21T10:22:33;100327.03;;;19.20;35.05
58072;BME280;60383;46.626;18.866;2023-04-21T10:25:02;100324.91;;;19.74;36.05
58072;BME280;60383;46.626;18.866;2023-04-21T10:27:40;100331.47;;;20.00;34.99
58072;BME280;60383;46.626;18.866;2023-04-21T10:30:24;100329.69;;;20.13;34.91
58072;BME280;60383;46.626;18.866;2023-04-21T10:33:03;100328.03;;;19.98;34.54
58072;BME280;60383;46.626;18.866;2023-04-21T10:38:40;100327.72;;;20.13;34.60
58072;BME280;60383;46.626;18.866;2023-04-21T10:41:30;100314.50;;;20.08;34.89
58072;BME280;60383;46.626;18.866;2023-04-21T10:43:59;100308.00;;;19.89;34.46
58072;BME280;60383;46.626;18.866;2023-04-21T10:46:31;100303.91;;;19.33;35.62
58072;BME280;60383;46.626;18.866;2023-04-21T10:49:31;100309.94;;;19.82;34.99
58072;BME280;60383;46.626;18.866;2023-04-21T10:54:35;100299.03;;;19.87;34.84
58072;BME280;60383;46.626;18.866;2023-04-21T10:57:05;100298.19;;;20.19;34.40
58072;BME280;60383;46.626;18.866;2023-04-21T10:59:30;100299.03;;;20.19;34.13
58072;BME280;60383;46.626;18.866;2023-04-21T11:01:56;100286.09;;;20.06;34.01
58072;BME280;60383;46.626;18.866;2023-04-21T11:04:21;100284.84;;;19.50;35.46
58072;BME280;60383;46.626;18.866;2023-04-21T11:07:22;100287.88;;;19.94;34.64
58072;BME280;60383;46.626;18.866;2023-04-21T11:09:49;100294.13;;;20.21;34.07
58072;BME280;60383;46.626;18.866;2023-04-21T11:12:20;100294.13;;;20.21;33.67
58072;BME280;60383;46.626;18.866;2023-04-21T11:14:46;100290.69;;;20.51;34.34
58072;BME280;60383;46.626;18.866;2023-04-21T11:17:16;100282.25;;;20.33;33.50
58072;BME280;60383;46.626;18.866;2023-04-21T11:19:47;100288.63;;;20.15;33.89
58072;BME280;60383;46.626;18.866;2023-04-21T11:22:15;100282.97;;;20.28;34.55
58072;BME280;60383;46.626;18.866;2023-04-21T11:24:44;100275.59;;;20.40;32.73
58072;BME280;60383;46.626;18.866;2023-04-21T11:27:10;100281.47;;;19.93;33.46
58072;BME280;60383;46.626;18.866;2023-04-21T11:29:37;100284.06;;;19.82;34.00
58072;BME280;60383;46.626;18.866;2023-04-21T11:32:05;100279.19;;;20.16;33.48
58072;BME280;60383;46.626;18.866;2023-04-21T11:34:31;100276.09;;;20.31;33.46
58072;BME280;60383;46.626;18.866;2023-04-21T11:36:56;100263.81;;;20.38;33.44
58072;BME280;60383;46.626;18.866;2023-04-21T11:39:22;100279.31;;;19.95;33.51
58072;BME280;60383;46.626;18.866;2023-04-21T11:41:49;100276.84;;;19.28;34.12
58072;BME280;60383;46.626;18.866;2023-04-21T11:44:36;100274.94;;;19.15;34.28
58072;BME280;60383;46.626;18.866;2023-04-21T11:47:18;100273.41;;;19.78;33.77
58072;BME280;60383;46.626;18.866;2023-04-21T11:49:58;100264.56;;;19.50;33.88
58072;BME280;60383;46.626;18.866;2023-04-21T11:52:24;100272.19;;;20.06;33.31
58072;BME280;60383;46.626;18.866;2023-04-21T11:57:23;100270.06;;;19.63;33.41
58072;BME280;60383;46.626;18.866;2023-04-21T11:59:50;100272.25;;;19.47;34.27
58072;BME280;60383;46.626;18.866;2023-04-21T12:02:23;100267.38;;;19.82;33.69
58072;BME280;60383;46.626;18.866;2023-04-21T12:05:19;100267.03;;;20.10;33.84
58072;BME280;60383;46.626;18.866;2023-04-21T12:07:45;100261.44;;;20.42;32.24
58072;BME280;60383;46.626;18.866;2023-04-21T12:10:13;100259.19;;;20.57;33.27
58072;BME280;60383;46.626;18.866;2023-04-21T12:12:40;100263.38;;;20.41;32.59
58072;BME280;60383;46.626;18.866;2023-04-21T12:15:07;100251.97;;;20.24;32.83
58072;BME280;60383;46.626;18.866;2023-04-21T12:17:42;100247.38;;;20.37;32.40
58072;BME280;60383;46.626;18.866;2023-04-21T12:20:08;100254.44;;;20.33;32.43
58072;BME280;60383;46.626;18.866;2023-04-21T12:22:34;100244.84;;;20.35;33.31
58072;BME280;60383;46.626;18.866;2023-04-21T12:24:59;100245.00;;;20.40;32.96
58072;BME280;60383;46.626;18.866;2023-04-21T12:27:26;100239.44;;;20.40;32.49
58072;BME280;60383;46.626;18.866;2023-04-21T12:29:51;100227.78;;;20.25;32.78
58072;BME280;60383;46.626;18.866;2023-04-21T12:32:17;100235.53;;;19.91;32.52
58072;BME280;60383;46.626;18.866;2023-04-21T12:34:42;100234.72;;;19.38;33.56
58072;BME280;60383;46.626;18.866;2023-04-21T12:37:08;100229.09;;;19.52;33.07
58072;BME280;60383;46.626;18.866;2023-04-21T12:39:33;100230.94;;;19.64;33.06
58072;BME280;60383;46.626;18.866;2023-04-21T12:41:59;100233.72;;;20.03;32.12
58072;BME280;60383;46.626;18.866;2023-04-21T12:44:26;100235.19;;;19.67;32.35
58072;BME280;60383;46.626;18.866;2023-04-21T12:46:52;100230.25;;;20.15;31.62